createdAt,value
2019-03-30T00:02:09.499Z,25.57
2019-03-30T00:04:35.802Z,27.43
2019-03-30T00:07:02.073Z,24.50
2019-03-30T00:09:28.468Z,29.10
2019-03-30T00:11:57.739Z,31.40
2019-03-30T00:14:22.892Z,31.53
2019-03-30T00:16:49.219Z,28.73
2019-03-30T00:19:15.603Z,25.67
2019-03-30T00:21:41.928Z,25.00
2019-03-30T00:24:08.202Z,29.00
2019-03-30T00:26:35.609Z,27.80
2019-03-30T00:29:01.887Z,25.40
2019-03-30T00:31:28.185Z,26.77
2019-03-30T00:33:54.426Z,30.53
2019-03-30T00:36:20.815Z,25.33
2019-03-30T00:38:49.176Z,26.53
2019-03-30T00:41:17.419Z,26.87
2019-03-30T00:43:43.713Z,30.97
2019-03-30T00:46:09.972Z,31.40
2019-03-30T00:48:36.290Z,31.80
2019-03-30T00:51:02.709Z,28.53
2019-03-30T00:53:29.070Z,26.40
2019-03-30T00:55:58.421Z,25.37
2019-03-30T00:58:25.752Z,28.47
2019-03-30T01:00:52.429Z,30.27
2019-03-30T01:03:18.716Z,31.47
2019-03-30T01:05:45.031Z,35.33
2019-03-30T01:08:11.399Z,30.70
2019-03-30T01:10:37.738Z,30.57
2019-03-30T01:13:04.035Z,31.33
2019-03-30T01:15:30.359Z,36.77
2019-03-30T01:17:56.659Z,33.00
2019-03-30T01:20:22.926Z,31.87
2019-03-30T01:22:49.191Z,32.63
2019-03-30T01:25:15.472Z,28.83
2019-03-30T01:27:41.765Z,37.13
2019-03-30T01:30:22.160Z,34.00
2019-03-30T01:32:37.004Z,35.20
2019-03-30T01:35:05.633Z,31.77
2019-03-30T01:37:31.974Z,31.07
2019-03-30T01:39:58.276Z,34.57
2019-03-30T01:42:27.715Z,29.83
2019-03-30T01:44:54.000Z,29.23
2019-03-30T01:47:22.694Z,30.57
2019-03-30T01:49:48.923Z,27.77
2019-03-30T01:52:15.396Z,28.43
2019-03-30T01:54:41.697Z,29.27
2019-03-30T01:57:07.951Z,29.30
2019-03-30T01:59:34.230Z,30.33
2019-03-30T02:02:00.591Z,25.70
2019-03-30T02:04:26.963Z,29.33
2019-03-30T02:06:53.233Z,28.90
2019-03-30T02:09:19.505Z,26.93
2019-03-30T02:11:45.770Z,29.90
2019-03-30T02:14:12.116Z,36.50
2019-03-30T02:16:38.387Z,30.17
2019-03-30T02:19:04.716Z,30.97
2019-03-30T02:21:30.967Z,35.30
2019-03-30T02:23:57.230Z,32.83
2019-03-30T02:26:23.560Z,32.97
2019-03-30T02:28:51.896Z,33.00
2019-03-30T02:31:19.247Z,31.27
2019-03-30T02:33:45.737Z,35.20
2019-03-30T02:36:15.053Z,33.43
2019-03-30T02:38:41.407Z,29.47
2019-03-30T02:41:08.698Z,29.73
2019-03-30T02:43:34.997Z,35.60
2019-03-30T02:46:02.669Z,36.03
2019-03-30T02:48:29.022Z,35.00
2019-03-30T02:50:55.386Z,37.80
2019-03-30T02:53:21.666Z,37.00
2019-03-30T02:55:48.044Z,32.47
2019-03-30T02:58:14.292Z,32.43
2019-03-30T03:00:46.543Z,31.27
2019-03-30T03:03:18.650Z,33.50
2019-03-30T03:05:44.936Z,34.40
2019-03-30T03:08:11.205Z,33.67
2019-03-30T03:10:37.470Z,31.30
2019-03-30T03:13:03.724Z,35.97
2019-03-30T03:15:30.000Z,38.90
2019-03-30T03:17:56.243Z,38.53
2019-03-30T03:20:22.619Z,37.20
2019-03-30T03:22:48.947Z,33.03
2019-03-30T03:25:15.223Z,36.37
2019-03-30T03:27:44.556Z,30.83
2019-03-30T03:30:11.101Z,34.17
2019-03-30T03:32:37.433Z,30.63
2019-03-30T03:35:03.674Z,34.80
2019-03-30T03:37:43.306Z,32.70
2019-03-30T03:39:57.998Z,30.50
2019-03-30T03:42:24.348Z,31.20
2019-03-30T03:44:53.757Z,33.97
2019-03-30T03:47:19.982Z,35.10
2019-03-30T03:49:46.273Z,31.67
2019-03-30T03:52:12.558Z,35.07
2019-03-30T03:54:38.808Z,33.83
2019-03-30T03:57:05.083Z,23.90
2019-03-30T04:02:17.559Z,31.93
2019-03-30T04:04:47.367Z,27.93
2019-03-30T04:07:12.483Z,31.57
2019-03-30T04:09:38.971Z,28.07
2019-03-30T04:12:06.741Z,30.40
2019-03-30T04:14:33.626Z,27.53
2019-03-30T04:16:59.963Z,28.87
2019-03-30T04:19:29.467Z,31.43
2019-03-30T04:21:56.021Z,30.13
2019-03-30T04:24:22.285Z,30.07
2019-03-30T04:26:48.654Z,30.20
2019-03-30T04:29:15.013Z,34.23
2019-03-30T04:31:41.312Z,26.33
2019-03-30T04:34:07.960Z,29.10
2019-03-30T04:36:40.207Z,30.50
2019-03-30T04:39:06.482Z,29.00
2019-03-30T04:41:32.722Z,31.43
2019-03-30T04:43:58.991Z,32.30
2019-03-30T04:46:28.291Z,30.53
2019-03-30T04:48:57.606Z,27.30
2019-03-30T04:51:23.901Z,34.13
2019-03-30T04:53:50.298Z,30.03
2019-03-30T04:56:18.782Z,32.07
2019-03-30T04:58:45.501Z,33.80
2019-03-30T05:01:14.867Z,28.13
2019-03-30T05:03:41.220Z,34.30
2019-03-30T05:06:07.546Z,28.37
2019-03-30T05:08:33.847Z,34.00
2019-03-30T05:11:00.213Z,32.20
2019-03-30T05:13:26.583Z,30.43
2019-03-30T05:15:52.922Z,31.27
2019-03-30T05:18:19.280Z,28.67
2019-03-30T05:20:45.622Z,31.20
2019-03-30T05:23:11.913Z,26.23
2019-03-30T05:25:38.216Z,26.83
2019-03-30T05:28:13.198Z,26.60
2019-03-30T05:30:39.519Z,29.67
2019-03-30T05:33:11.798Z,28.20
2019-03-30T05:35:38.123Z,29.03
2019-03-30T05:38:04.595Z,24.90
2019-03-30T05:40:36.691Z,25.60
2019-03-30T05:43:02.962Z,24.97
2019-03-30T05:45:29.326Z,23.57
2019-03-30T05:47:55.718Z,24.43
2019-03-30T05:50:21.991Z,24.87
2019-03-30T05:52:48.250Z,24.33
2019-03-30T05:55:14.618Z,26.00
2019-03-30T05:57:41.086Z,24.37
2019-03-30T06:00:08.145Z,25.50
2019-03-30T06:02:34.582Z,24.80
2019-03-30T06:05:03.353Z,24.47
2019-03-30T06:07:29.099Z,24.73
2019-03-30T06:09:55.543Z,22.70
2019-03-30T06:12:21.920Z,27.33
2019-03-30T06:14:48.293Z,22.67
2019-03-30T06:17:14.595Z,27.10
2019-03-30T06:19:40.905Z,22.67
2019-03-30T06:22:07.449Z,20.60
2019-03-30T06:24:33.857Z,20.02
2019-03-30T06:27:00.215Z,22.53
2019-03-30T06:29:29.810Z,20.05
2019-03-30T06:31:56.173Z,18.17
2019-03-30T06:34:22.464Z,21.57
2019-03-30T06:36:48.850Z,20.27
2019-03-30T06:39:15.165Z,18.77
2019-03-30T06:41:47.292Z,20.45
2019-03-30T06:44:13.575Z,19.87
2019-03-30T06:46:39.871Z,19.05
2019-03-30T06:49:06.301Z,23.75
2019-03-30T06:51:32.679Z,20.43
2019-03-30T06:53:58.944Z,18.65
2019-03-30T06:56:25.358Z,18.90
2019-03-30T06:58:54.663Z,17.55
2019-03-30T07:01:21.502Z,19.42
2019-03-30T07:03:47.922Z,19.00
2019-03-30T07:06:14.317Z,17.85
2019-03-30T07:08:41.105Z,18.12
2019-03-30T07:11:20.707Z,18.98
2019-03-30T07:13:36.899Z,17.02
2019-03-30T07:16:03.331Z,16.30
2019-03-30T07:18:29.653Z,14.87
2019-03-30T07:20:58.012Z,17.73
2019-03-30T07:23:30.136Z,14.60
2019-03-30T07:25:56.459Z,16.93
2019-03-30T07:28:22.699Z,17.07
2019-03-30T07:30:49.070Z,20.27
2019-03-30T07:33:15.438Z,16.27
2019-03-30T07:35:41.847Z,15.30
2019-03-30T07:38:08.162Z,16.73
2019-03-30T07:40:37.507Z,23.27
2019-03-30T07:43:03.878Z,17.57
2019-03-30T07:45:34.549Z,16.93
2019-03-30T07:48:06.788Z,17.80
2019-03-30T07:50:34.122Z,19.57
2019-03-30T07:53:00.544Z,18.17
2019-03-30T07:55:26.798Z,18.45
2019-03-30T07:57:56.317Z,18.23
2019-03-30T08:00:30.588Z,17.35
2019-03-30T08:02:53.122Z,20.17
2019-03-30T08:05:22.535Z,20.72
2019-03-30T08:07:52.138Z,19.77
2019-03-30T08:10:18.395Z,18.60
2019-03-30T08:12:44.759Z,19.32
2019-03-30T08:15:11.167Z,20.77
2019-03-30T08:17:43.703Z,23.05
2019-03-30T08:20:10.082Z,22.17
2019-03-30T08:22:36.989Z,19.37
2019-03-30T08:25:04.699Z,23.73
2019-03-30T08:27:31.018Z,21.20
2019-03-30T08:29:57.269Z,21.73
2019-03-30T08:32:23.605Z,20.80
2019-03-30T08:34:49.866Z,21.42
2019-03-30T08:37:17.226Z,25.23
2019-03-30T08:39:43.622Z,24.40
2019-03-30T08:42:13.118Z,25.50
2019-03-30T08:44:39.442Z,23.12
2019-03-30T08:47:05.855Z,23.65
2019-03-30T08:49:32.128Z,22.62
2019-03-30T08:51:58.434Z,22.58
2019-03-30T08:54:25.139Z,25.08
2019-03-30T08:56:51.491Z,25.60
2019-03-30T08:59:17.804Z,25.97
2019-03-30T09:01:44.207Z,22.67
2019-03-30T09:04:10.536Z,22.30
2019-03-30T09:06:36.819Z,28.25
2019-03-30T09:09:05.406Z,22.50
2019-03-30T09:11:31.840Z,25.80
2019-03-30T09:14:04.096Z,24.85
2019-03-30T09:16:32.473Z,26.02
2019-03-30T09:18:58.791Z,28.27
2019-03-30T09:21:25.113Z,24.77
2019-03-30T09:23:51.358Z,25.02
2019-03-30T09:26:17.632Z,25.65
2019-03-30T09:28:50.363Z,22.40
2019-03-30T09:31:16.662Z,24.98
2019-03-30T09:33:43.063Z,24.07
2019-03-30T09:36:15.213Z,23.12
2019-03-30T09:38:41.524Z,25.90
2019-03-30T09:41:08.376Z,27.02
2019-03-30T09:43:37.386Z,22.87
2019-03-30T09:46:03.153Z,23.35
2019-03-30T09:48:29.597Z,21.97
2019-03-30T09:50:55.880Z,23.20
2019-03-30T09:53:22.263Z,25.30
2019-03-30T09:55:48.534Z,23.75
2019-03-30T09:58:14.959Z,23.70
2019-03-30T10:00:44.366Z,25.15
2019-03-30T10:03:10.685Z,24.23
2019-03-30T10:05:37.074Z,27.77
2019-03-30T10:08:03.334Z,24.92
2019-03-30T10:10:29.583Z,25.30
2019-03-30T10:12:55.953Z,24.63
2019-03-30T10:15:22.565Z,25.88
2019-03-30T10:17:49.831Z,25.97
2019-03-30T10:20:17.534Z,23.67
2019-03-30T10:22:43.872Z,24.82
2019-03-30T10:25:10.277Z,26.57
2019-03-30T10:27:36.625Z,30.60
2019-03-30T10:30:07.254Z,31.15
2019-03-30T10:32:36.627Z,23.65
2019-03-30T10:35:06.109Z,26.73
2019-03-30T10:37:32.434Z,25.77
2019-03-30T10:39:58.851Z,27.55
2019-03-30T10:42:26.104Z,25.15
2019-03-30T10:44:58.483Z,24.52
2019-03-30T10:47:24.773Z,25.25
2019-03-30T10:49:51.445Z,26.00
2019-03-30T10:52:18.802Z,28.62
2019-03-30T10:54:52.552Z,24.85
2019-03-30T10:57:13.271Z,26.12
2019-03-30T10:59:45.663Z,25.68
2019-03-30T11:02:12.050Z,23.95
2019-03-30T11:04:38.410Z,23.22
2019-03-30T11:07:04.695Z,23.27
2019-03-30T11:09:33.966Z,22.40
2019-03-30T11:12:00.263Z,23.55
2019-03-30T11:14:26.538Z,21.55
2019-03-30T11:16:52.847Z,23.07
2019-03-30T11:19:19.182Z,23.80
2019-03-30T11:21:45.432Z,21.70
2019-03-30T11:24:11.759Z,26.05
2019-03-30T11:26:38.248Z,22.93
2019-03-30T11:29:04.523Z,24.10
2019-03-30T11:31:30.858Z,22.02
2019-03-30T11:33:57.157Z,21.10
2019-03-30T11:36:26.783Z,23.62
2019-03-30T11:38:53.097Z,25.05
2019-03-30T11:41:19.468Z,22.62
2019-03-30T11:43:45.819Z,24.40
2019-03-30T11:46:12.206Z,23.50
2019-03-30T11:48:38.491Z,20.82
2019-03-30T11:51:11.369Z,23.80
2019-03-30T11:53:37.687Z,21.23
2019-03-30T11:56:03.958Z,19.90
2019-03-30T11:58:30.317Z,19.92
2019-03-30T12:00:56.657Z,21.52
2019-03-30T12:03:22.918Z,22.17
2019-03-30T12:05:49.216Z,22.35
2019-03-30T12:08:15.599Z,20.95
2019-03-30T12:10:42.390Z,23.02
2019-03-30T12:13:08.901Z,21.52
2019-03-30T12:15:35.151Z,21.52
2019-03-30T12:18:01.488Z,20.20
2019-03-30T12:20:27.734Z,20.05
2019-03-30T12:22:59.960Z,22.67
2019-03-30T12:25:35.316Z,19.60
2019-03-30T12:30:23.834Z,18.23
2019-03-30T12:32:50.124Z,16.17
2019-03-30T12:35:16.698Z,17.57
2019-03-30T12:37:43.074Z,19.45
2019-03-30T12:40:09.352Z,17.50
2019-03-30T12:42:35.589Z,20.75
2019-03-30T12:45:03.796Z,17.62
2019-03-30T12:47:35.919Z,17.23
2019-03-30T12:50:08.850Z,17.27
2019-03-30T12:53:04.228Z,22.40
2019-03-30T12:55:30.575Z,17.42
2019-03-30T12:58:16.964Z,20.20
2019-03-30T13:00:50.242Z,18.17
2019-03-30T13:03:16.688Z,16.87
2019-03-30T13:05:43.164Z,18.92
2019-03-30T13:08:09.842Z,18.67
2019-03-30T13:10:36.231Z,21.48
2019-03-30T13:13:05.581Z,17.65
2019-03-30T13:15:32.004Z,18.75
2019-03-30T13:17:58.291Z,16.60
2019-03-30T13:20:24.576Z,16.40
2019-03-30T13:22:50.909Z,17.65
2019-03-30T13:25:30.295Z,25.32
2019-03-30T13:27:56.606Z,19.77
2019-03-30T13:30:22.979Z,18.85
2019-03-30T13:32:55.304Z,18.98
2019-03-30T13:35:21.555Z,22.45
2019-03-30T13:37:47.906Z,17.10
2019-03-30T13:40:14.184Z,16.32
2019-03-30T13:42:40.560Z,16.67
2019-03-30T13:45:12.774Z,16.57
2019-03-30T13:47:39.069Z,15.05
2019-03-30T13:50:05.460Z,17.52
2019-03-30T13:52:31.738Z,19.17
2019-03-30T13:54:58.022Z,14.73
2019-03-30T13:57:24.619Z,16.00
2019-03-30T13:59:50.896Z,18.95
2019-03-30T14:02:17.257Z,16.35
2019-03-30T14:04:43.547Z,15.85
2019-03-30T14:07:09.804Z,19.52
2019-03-30T14:09:36.090Z,16.75
2019-03-30T14:12:17.461Z,15.83
2019-03-30T14:17:09.878Z,17.98
2019-03-30T14:19:36.134Z,19.90
2019-03-30T14:22:02.469Z,15.13
2019-03-30T14:24:28.828Z,14.63
2019-03-30T14:26:55.100Z,15.55
2019-03-30T14:29:23.446Z,16.37
2019-03-30T14:31:49.863Z,16.50
2019-03-30T14:34:16.606Z,17.17
2019-03-30T14:36:42.866Z,17.52
2019-03-30T14:39:09.306Z,17.92
2019-03-30T14:41:35.652Z,19.17
2019-03-30T14:44:01.923Z,19.52
2019-03-30T14:46:30.208Z,14.80
2019-03-30T14:48:56.770Z,21.07
2019-03-30T14:51:23.120Z,18.55
2019-03-30T14:53:49.369Z,15.00
2019-03-30T14:56:21.475Z,16.85
2019-03-30T14:58:47.779Z,18.82
2019-03-30T15:01:14.066Z,17.45
2019-03-30T15:03:43.524Z,18.40
2019-03-30T15:06:09.857Z,16.73
2019-03-30T15:08:36.300Z,16.80
2019-03-30T15:11:02.617Z,17.52
2019-03-30T15:13:28.871Z,18.00
2019-03-30T15:15:55.118Z,16.02
2019-03-30T15:18:21.451Z,15.32
2019-03-30T15:20:47.806Z,20.45
2019-03-30T15:23:14.110Z,17.25
2019-03-30T15:25:40.478Z,18.85
2019-03-30T15:28:09.847Z,20.17
2019-03-30T15:30:42.227Z,20.75
2019-03-30T15:33:15.256Z,19.87
2019-03-30T15:35:41.639Z,18.42
2019-03-30T15:38:07.957Z,19.57
2019-03-30T15:40:34.529Z,20.02
2019-03-30T15:43:05.486Z,17.60
2019-03-30T15:45:31.918Z,20.92
2019-03-30T15:47:58.267Z,21.82
2019-03-30T15:50:24.552Z,20.05
2019-03-30T15:52:51.978Z,21.15
2019-03-30T15:55:18.287Z,20.55
2019-03-30T15:57:44.666Z,20.50
2019-03-30T16:00:12.615Z,17.50
2019-03-30T16:02:39.892Z,17.07
2019-03-30T16:05:06.625Z,21.12
2019-03-30T16:07:32.965Z,20.80
2019-03-30T16:10:00.609Z,22.85
2019-03-30T16:12:27.041Z,20.40
2019-03-30T16:14:53.354Z,17.98
2019-03-30T16:17:19.638Z,19.80
2019-03-30T16:19:46.621Z,19.15
2019-03-30T16:22:13.526Z,18.77
2019-03-30T16:24:39.842Z,22.58
2019-03-30T16:27:06.104Z,21.70
2019-03-30T16:29:38.784Z,19.95
2019-03-30T16:32:05.114Z,22.70
2019-03-30T16:34:31.394Z,20.92
2019-03-30T16:36:57.715Z,19.62
2019-03-30T16:39:24.048Z,19.50
2019-03-30T16:41:50.352Z,18.00
2019-03-30T16:44:16.622Z,21.93
2019-03-30T16:46:44.958Z,22.40
2019-03-30T16:49:11.235Z,21.42
2019-03-30T16:51:37.570Z,25.30
2019-03-30T16:54:04.067Z,21.33
2019-03-30T16:56:30.319Z,21.48
2019-03-30T16:59:05.763Z,22.25
2019-03-30T17:01:33.054Z,21.80
2019-03-30T17:03:59.407Z,23.98
2019-03-30T17:06:25.667Z,20.68
2019-03-30T17:08:51.917Z,22.45
2019-03-30T17:11:18.185Z,23.30
2019-03-30T17:13:44.582Z,20.10
2019-03-30T17:16:10.863Z,24.07
2019-03-30T17:18:37.206Z,23.30
2019-03-30T17:21:03.595Z,23.55
2019-03-30T17:23:30.000Z,25.90
2019-03-30T17:25:56.304Z,22.58
2019-03-30T17:28:23.785Z,23.98
2019-03-30T17:30:51.089Z,23.92
2019-03-30T17:33:17.370Z,23.42
2019-03-30T17:35:44.774Z,24.57
2019-03-30T17:38:11.066Z,23.07
2019-03-30T17:40:37.322Z,25.77
2019-03-30T17:43:10.023Z,24.63
2019-03-30T17:45:36.318Z,24.12
2019-03-30T17:48:02.616Z,25.32
2019-03-30T17:50:28.944Z,25.48
2019-03-30T17:52:55.268Z,23.98
2019-03-30T17:55:33.163Z,24.25
2019-03-30T17:57:50.616Z,24.30
2019-03-30T18:00:18.808Z,23.95
2019-03-30T18:02:45.548Z,20.85
2019-03-30T18:05:12.053Z,30.90
2019-03-30T18:07:38.336Z,26.80
2019-03-30T18:10:05.480Z,30.52
2019-03-30T18:12:32.016Z,37.15
2019-03-30T18:14:58.316Z,30.08
2019-03-30T18:17:24.639Z,24.72
2019-03-30T18:19:50.960Z,53.15
2019-03-30T18:22:20.271Z,37.67
2019-03-30T18:24:46.644Z,24.50
2019-03-30T18:27:13.038Z,28.75
2019-03-30T18:29:39.309Z,25.23
2019-03-30T18:32:05.662Z,24.07
2019-03-30T18:34:34.987Z,22.60
2019-03-30T18:37:07.468Z,28.77
2019-03-30T18:39:34.147Z,26.70
2019-03-30T18:42:03.448Z,26.23
2019-03-30T18:44:29.727Z,27.40
2019-03-30T18:47:02.712Z,25.82
2019-03-30T18:49:29.087Z,25.12
2019-03-30T18:51:55.395Z,24.23
2019-03-30T18:54:21.662Z,32.20
2019-03-30T18:56:47.913Z,29.32
2019-03-30T18:59:14.222Z,32.35
2019-03-30T19:01:42.516Z,30.72
2019-03-30T19:04:09.820Z,32.48
2019-03-30T19:06:36.092Z,29.82
2019-03-30T19:09:04.646Z,35.55
2019-03-30T19:11:31.067Z,28.57
2019-03-30T19:13:57.433Z,28.35
2019-03-30T19:16:23.775Z,36.70
2019-03-30T19:18:50.093Z,35.65
2019-03-30T19:21:16.458Z,29.23
2019-03-30T19:23:42.686Z,30.92
2019-03-30T19:26:08.963Z,33.78
2019-03-30T19:28:36.670Z,35.25
2019-03-30T19:31:06.470Z,30.90
2019-03-30T19:33:32.751Z,35.03
2019-03-30T19:35:59.034Z,32.10
2019-03-30T19:38:25.294Z,33.05
2019-03-30T19:40:51.626Z,33.55
2019-03-30T19:43:24.106Z,31.35
2019-03-30T19:45:50.431Z,34.65
2019-03-30T19:48:20.083Z,30.48
2019-03-30T19:50:46.365Z,29.95
2019-03-30T19:53:12.637Z,33.28
2019-03-30T19:55:44.971Z,31.00
2019-03-30T19:58:17.370Z,31.75
2019-03-30T20:00:44.703Z,31.87
2019-03-30T20:03:11.051Z,40.15
2019-03-30T20:05:37.358Z,34.03
2019-03-30T20:08:12.062Z,33.33
2019-03-30T20:10:34.735Z,33.08
2019-03-30T20:13:01.033Z,29.95
2019-03-30T20:15:27.263Z,31.23
2019-03-30T20:17:53.627Z,30.15
2019-03-30T20:20:20.147Z,31.00
2019-03-30T20:22:46.458Z,33.45
2019-03-30T20:25:12.712Z,35.83
2019-03-30T20:27:39.072Z,33.95
2019-03-30T20:30:06.749Z,39.33
2019-03-30T20:32:43.480Z,31.45
2019-03-30T20:35:15.122Z,35.63
2019-03-30T20:37:41.544Z,37.63
2019-03-30T20:40:10.018Z,40.10
2019-03-30T20:42:36.293Z,33.35
2019-03-30T20:45:05.780Z,35.13
2019-03-30T20:47:35.141Z,36.05
2019-03-30T20:50:01.428Z,34.75
2019-03-30T20:52:28.534Z,38.05
2019-03-30T20:54:54.932Z,39.00
2019-03-30T20:57:21.248Z,37.70
2019-03-30T20:59:56.553Z,41.58
2019-03-30T21:02:22.851Z,37.03
2019-03-30T21:04:49.192Z,34.85
2019-03-30T21:07:18.557Z,40.43
2019-03-30T21:09:44.839Z,38.63
2019-03-30T21:12:11.111Z,38.78
2019-03-30T21:14:37.665Z,40.15
2019-03-30T21:17:03.944Z,39.20
2019-03-30T21:19:30.278Z,41.90
2019-03-30T21:21:56.553Z,46.53
2019-03-30T21:24:22.824Z,51.28
2019-03-30T21:26:49.175Z,51.55
2019-03-30T21:29:15.546Z,43.80
2019-03-30T21:31:41.858Z,50.28
2019-03-30T21:34:08.123Z,47.93
2019-03-30T21:36:34.452Z,44.75
2019-03-30T21:39:00.758Z,50.50
2019-03-30T21:41:33.174Z,49.85
2019-03-30T21:43:59.483Z,50.67
2019-03-30T21:46:25.774Z,50.33
2019-03-30T21:48:52.143Z,45.88
2019-03-30T21:51:18.486Z,55.10
2019-03-30T21:53:44.776Z,56.25
2019-03-30T21:56:14.165Z,56.92
2019-03-30T21:58:40.433Z,54.23
2019-03-30T22:01:06.689Z,54.63
2019-03-30T22:03:32.953Z,60.63
2019-03-30T22:06:05.452Z,61.83
2019-03-30T22:08:31.829Z,62.48
2019-03-30T22:10:58.087Z,56.42
2019-03-30T22:13:24.375Z,52.60
2019-03-30T22:15:50.659Z,55.00
2019-03-30T22:18:16.944Z,54.10
2019-03-30T22:20:43.459Z,64.00
2019-03-30T22:23:13.072Z,64.42
2019-03-30T22:25:39.419Z,70.05
2019-03-30T22:28:05.781Z,61.77
2019-03-30T22:30:36.744Z,61.08
2019-03-30T22:33:04.807Z,72.32
2019-03-30T22:35:31.401Z,72.17
2019-03-30T22:37:57.660Z,68.05
2019-03-30T22:40:24.044Z,65.80
2019-03-30T22:42:50.521Z,65.90
2019-03-30T22:45:16.994Z,68.33
2019-03-30T22:47:43.341Z,62.75
2019-03-30T22:50:09.638Z,64.35
2019-03-30T22:52:35.901Z,64.00
2019-03-30T22:55:04.220Z,63.75
2019-03-30T22:57:30.509Z,65.80
2019-03-30T23:00:00.042Z,63.70
2019-03-30T23:02:26.418Z,59.45
2019-03-30T23:04:56.062Z,61.17
2019-03-30T23:07:22.340Z,67.03
2019-03-30T23:09:48.617Z,64.60
2019-03-30T23:12:15.156Z,70.03
2019-03-30T23:14:41.480Z,68.75
2019-03-30T23:17:07.812Z,67.23
2019-03-30T23:19:34.258Z,72.92
2019-03-30T23:22:00.524Z,66.77
2019-03-30T23:24:26.822Z,69.73
2019-03-30T23:26:58.858Z,68.12
2019-03-30T23:29:25.285Z,79.00
2019-03-30T23:31:51.574Z,68.57
2019-03-30T23:34:17.854Z,75.73
2019-03-30T23:36:44.116Z,73.20
2019-03-30T23:39:13.490Z,65.30
2019-03-30T23:41:39.761Z,71.63
2019-03-30T23:44:06.132Z,70.43
2019-03-30T23:46:33.414Z,70.97
2019-03-30T23:49:05.455Z,74.90
2019-03-30T23:51:31.841Z,72.33
2019-03-30T23:53:58.241Z,74.17
2019-03-30T23:56:27.698Z,75.40
2019-03-30T23:58:56.021Z,81.77
